createdAt,value
2023-04-27T00:02:16.045Z,8.33
2023-04-27T00:04:44.692Z,7.67
2023-04-27T00:07:12.891Z,7.97
2023-04-27T00:09:40.810Z,8.17
2023-04-27T00:12:08.929Z,7.50
2023-04-27T00:14:36.959Z,8.27
2023-04-27T00:17:06.235Z,8.00
2023-04-27T00:19:34.794Z,7.67
2023-04-27T00:22:02.799Z,7.70
2023-04-27T00:24:30.762Z,5.30
2023-04-27T00:26:58.707Z,7.30
2023-04-27T00:29:26.626Z,8.40
2023-04-27T00:31:54.519Z,7.63
2023-04-27T00:34:25.032Z,7.13
2023-04-27T00:36:52.969Z,8.40
2023-04-27T00:39:21.734Z,8.90
2023-04-27T00:41:49.643Z,8.60
2023-04-27T00:44:23.979Z,8.80
2023-04-27T00:46:52.327Z,8.87
2023-04-27T00:49:20.902Z,9.67
2023-04-27T00:51:50.313Z,9.80
2023-04-27T00:54:20.953Z,9.80
2023-04-27T00:56:50.005Z,9.90
2023-04-27T00:59:18.007Z,9.73
2023-04-27T01:01:47.120Z,9.07
2023-04-27T01:04:15.588Z,9.67
2023-04-27T01:06:43.688Z,9.00
2023-04-27T01:09:13.669Z,9.00
2023-04-27T01:11:41.809Z,9.00
2023-04-27T01:14:09.832Z,9.53
2023-04-27T01:16:38.160Z,9.60
2023-04-27T01:19:06.347Z,10.00
2023-04-27T01:21:34.269Z,9.20
2023-04-27T01:24:05.827Z,8.50
2023-04-27T01:26:34.130Z,8.83
2023-04-27T01:29:01.961Z,8.30
2023-04-27T01:31:29.940Z,9.17
2023-04-27T01:33:57.971Z,7.40
2023-04-27T01:36:27.798Z,8.50
2023-04-27T01:38:57.399Z,7.90
2023-04-27T01:41:26.739Z,8.70
2023-04-27T01:43:54.605Z,8.57
2023-04-27T01:46:22.831Z,8.60
2023-04-27T01:48:51.631Z,8.30
2023-04-27T01:51:20.023Z,8.07
2023-04-27T01:53:48.045Z,9.20
2023-04-27T01:56:17.603Z,9.13
2023-04-27T01:58:47.206Z,8.63
2023-04-27T02:01:15.105Z,8.43
2023-04-27T02:03:43.201Z,9.17
2023-04-27T02:06:13.769Z,8.67
2023-04-27T02:08:41.822Z,9.17
2023-04-27T02:11:10.273Z,8.67
2023-04-27T02:13:38.298Z,8.23
2023-04-27T02:16:08.607Z,8.13
2023-04-27T02:18:36.601Z,8.63
2023-04-27T02:21:09.632Z,8.73
2023-04-27T02:23:38.287Z,8.43
2023-04-27T02:26:06.524Z,9.47
2023-04-27T02:28:34.492Z,9.23
2023-04-27T02:31:03.149Z,9.00
2023-04-27T02:33:33.220Z,9.10
2023-04-27T02:36:01.168Z,9.40
2023-04-27T02:38:30.622Z,10.67
2023-04-27T02:40:58.580Z,8.87
2023-04-27T02:43:28.482Z,9.80
2023-04-27T02:45:56.439Z,11.10
2023-04-27T02:48:24.257Z,11.10
2023-04-27T02:50:53.522Z,9.50
2023-04-27T02:53:21.406Z,9.70
2023-04-27T02:55:49.713Z,9.90
2023-04-27T02:58:17.800Z,10.13
2023-04-27T03:00:46.165Z,10.57
2023-04-27T03:03:14.414Z,11.43
2023-04-27T03:05:42.456Z,12.40
2023-04-27T03:08:11.726Z,10.77
2023-04-27T03:10:39.657Z,10.33
2023-04-27T03:13:07.759Z,11.80
2023-04-27T03:15:36.119Z,12.00
2023-04-27T03:18:04.158Z,13.03
2023-04-27T03:20:32.316Z,11.63
2023-04-27T03:23:00.262Z,12.70
2023-04-27T03:25:29.677Z,10.87
2023-04-27T03:27:57.579Z,12.33
2023-04-27T03:30:25.565Z,11.37
2023-04-27T03:32:53.838Z,10.33
2023-04-27T03:35:21.913Z,10.63
2023-04-27T03:37:49.805Z,11.70
2023-04-27T03:40:17.895Z,10.50
2023-04-27T03:42:47.322Z,10.43
2023-04-27T03:45:16.686Z,10.30
2023-04-27T03:47:44.625Z,11.90
2023-04-27T03:50:14.066Z,11.97
2023-04-27T03:52:42.009Z,11.63
2023-04-27T03:55:10.720Z,13.33
2023-04-27T03:57:41.988Z,11.90
2023-04-27T04:00:13.017Z,12.17
2023-04-27T04:02:41.138Z,12.53
2023-04-27T04:05:12.674Z,10.97
2023-04-27T04:07:41.628Z,10.37
2023-04-27T04:10:10.842Z,10.17
2023-04-27T04:12:39.037Z,9.90
2023-04-27T04:15:08.678Z,9.00
2023-04-27T04:17:38.055Z,9.10
2023-04-27T04:20:10.012Z,10.00
2023-04-27T04:22:38.288Z,8.80
2023-04-27T04:25:08.184Z,8.70
2023-04-27T04:27:36.390Z,8.37
2023-04-27T04:30:06.447Z,9.20
2023-04-27T04:32:38.856Z,8.13
2023-04-27T04:35:08.444Z,8.37
2023-04-27T04:37:36.560Z,8.17
2023-04-27T04:40:10.398Z,8.53
2023-04-27T04:42:39.418Z,8.63
2023-04-27T04:45:10.545Z,7.80
2023-04-27T04:47:40.016Z,9.20
2023-04-27T04:50:10.149Z,7.90
2023-04-27T04:52:38.602Z,8.40
2023-04-27T04:55:07.905Z,8.17
2023-04-27T04:57:35.996Z,8.43
2023-04-27T05:00:06.600Z,8.53
2023-04-27T05:02:34.950Z,8.37
2023-04-27T05:05:04.608Z,8.57
2023-04-27T05:07:32.476Z,8.20
2023-04-27T05:10:00.466Z,8.40
2023-04-27T05:12:28.916Z,6.07
2023-04-27T05:14:57.241Z,8.20
2023-04-27T05:17:25.245Z,8.20
2023-04-27T05:19:53.196Z,8.13
2023-04-27T05:22:22.523Z,8.47
2023-04-27T05:24:50.629Z,8.40
2023-04-27T05:27:18.533Z,8.33
2023-04-27T05:29:46.503Z,8.73
2023-04-27T05:32:14.519Z,9.00
2023-04-27T05:34:43.745Z,7.67
2023-04-27T05:37:11.762Z,8.37
2023-04-27T05:39:42.331Z,7.70
2023-04-27T05:42:10.292Z,8.30
2023-04-27T05:44:38.226Z,8.17
2023-04-27T05:47:06.514Z,8.47
2023-04-27T05:49:34.374Z,7.70
2023-04-27T05:52:03.052Z,8.47
2023-04-27T05:54:31.107Z,8.83
2023-04-27T05:57:00.374Z,8.77
2023-04-27T05:59:29.286Z,9.07
2023-04-27T06:01:57.287Z,8.90
2023-04-27T06:04:25.701Z,8.70
2023-04-27T06:06:53.726Z,10.73
2023-04-27T06:09:21.606Z,9.90
2023-04-27T06:11:49.424Z,8.10
2023-04-27T06:14:18.805Z,8.83
2023-04-27T06:16:46.718Z,7.90
2023-04-27T06:19:14.882Z,9.10
2023-04-27T06:21:43.195Z,8.50
2023-04-27T06:24:11.189Z,8.83
2023-04-27T06:26:39.017Z,8.03
2023-04-27T06:29:07.903Z,8.17
2023-04-27T06:31:37.283Z,7.60
2023-04-27T06:34:05.431Z,8.50
2023-04-27T06:36:33.339Z,8.10
2023-04-27T06:39:01.699Z,7.13
2023-04-27T06:41:29.571Z,7.93
2023-04-27T06:43:58.959Z,6.60
2023-04-27T06:46:27.465Z,7.10
2023-04-27T06:48:56.829Z,6.83
2023-04-27T06:51:24.675Z,6.73
2023-04-27T06:53:53.168Z,6.63
2023-04-27T06:56:21.140Z,6.10
2023-04-27T06:58:49.014Z,6.23
2023-04-27T07:01:16.949Z,5.60
2023-04-27T07:03:44.903Z,6.20
2023-04-27T07:06:14.254Z,6.03
2023-04-27T07:08:43.011Z,6.23
2023-04-27T07:11:10.922Z,6.53
2023-04-27T07:13:38.859Z,7.00
2023-04-27T07:16:07.605Z,12.30
2023-04-27T07:18:35.740Z,8.07
2023-04-27T07:21:03.572Z,7.60
2023-04-27T07:23:32.869Z,7.07
2023-04-27T07:26:00.919Z,7.63
2023-04-27T07:28:29.366Z,6.63
2023-04-27T07:30:58.079Z,7.50
2023-04-27T07:33:26.977Z,7.60
2023-04-27T07:35:55.035Z,6.87
2023-04-27T07:38:23.383Z,6.93
2023-04-27T07:40:52.844Z,6.30
2023-04-27T07:43:23.005Z,6.63
2023-04-27T07:45:50.903Z,7.23
2023-04-27T07:48:19.303Z,6.37
2023-04-27T07:50:47.234Z,5.73
2023-04-27T07:53:15.191Z,6.30
2023-04-27T07:55:44.406Z,6.57
2023-04-27T07:58:14.046Z,6.20
2023-04-27T08:00:41.874Z,5.20
2023-04-27T08:03:10.066Z,5.33
2023-04-27T08:05:38.518Z,5.87
2023-04-27T08:08:07.194Z,5.90
2023-04-27T08:10:35.744Z,5.50
2023-04-27T08:13:03.884Z,5.60
2023-04-27T08:15:33.226Z,5.50
2023-04-27T08:18:01.298Z,5.10
2023-04-27T08:20:29.287Z,5.30
2023-04-27T08:22:57.341Z,4.77
2023-04-27T08:25:25.202Z,4.60
2023-04-27T08:27:53.570Z,4.27
2023-04-27T08:30:21.839Z,6.40
2023-04-27T08:32:51.346Z,4.80
2023-04-27T08:35:19.341Z,5.90
2023-04-27T08:37:47.292Z,4.60
2023-04-27T08:40:15.451Z,4.80
2023-04-27T08:42:56.200Z,4.23
2023-04-27T08:45:24.969Z,4.67
2023-04-27T08:47:54.860Z,4.20
2023-04-27T08:50:24.394Z,4.60
2023-04-27T08:52:53.070Z,3.90
2023-04-27T08:55:21.291Z,4.87
2023-04-27T08:57:57.208Z,4.47
2023-04-27T09:00:26.489Z,4.70
2023-04-27T09:02:55.858Z,4.50
2023-04-27T09:05:24.456Z,4.50
2023-04-27T09:07:59.624Z,5.13
2023-04-27T09:10:29.467Z,4.03
2023-04-27T09:12:59.535Z,4.13
2023-04-27T09:15:28.440Z,4.33
2023-04-27T09:17:58.551Z,4.60
2023-04-27T09:20:28.616Z,4.50
2023-04-27T09:22:58.390Z,4.33
2023-04-27T09:25:28.612Z,4.43
2023-04-27T09:27:58.001Z,5.57
2023-04-27T09:30:26.453Z,5.50
2023-04-27T09:32:56.072Z,4.47
2023-04-27T09:35:27.161Z,4.50
2023-04-27T09:37:55.900Z,5.00
2023-04-27T09:40:27.721Z,5.20
2023-04-27T09:42:56.830Z,4.53
2023-04-27T09:45:25.021Z,4.40
2023-04-27T09:47:53.273Z,4.90
2023-04-27T09:50:22.122Z,5.10
2023-04-27T09:52:51.483Z,3.93
2023-04-27T09:55:25.691Z,4.97
2023-04-27T09:57:59.820Z,4.20
2023-04-27T10:00:41.911Z,4.37
2023-04-27T10:03:20.932Z,4.20
2023-04-27T10:06:34.037Z,4.40
2023-04-27T10:09:06.086Z,3.80
2023-04-27T10:11:40.595Z,3.53
2023-04-27T10:14:11.088Z,4.20
2023-04-27T10:16:46.484Z,4.50
2023-04-27T10:19:15.452Z,4.13
2023-04-27T10:21:54.131Z,4.30
2023-04-27T10:24:33.127Z,4.50
2023-04-27T10:27:06.858Z,4.20
2023-04-27T10:29:39.861Z,4.17
2023-04-27T10:32:08.995Z,3.97
2023-04-27T10:34:38.023Z,4.30
2023-04-27T10:37:07.463Z,4.57
2023-04-27T10:39:48.724Z,4.00
2023-04-27T10:42:28.112Z,3.80
2023-04-27T10:44:58.194Z,3.70
2023-04-27T10:47:36.959Z,3.77
2023-04-27T10:50:07.537Z,4.37
2023-04-27T10:52:35.536Z,4.10
2023-04-27T10:55:16.393Z,4.33
2023-04-27T10:57:50.080Z,4.40
2023-04-27T11:00:24.005Z,4.47
2023-04-27T11:02:52.739Z,4.60
2023-04-27T11:05:22.482Z,4.37
2023-04-27T11:07:50.655Z,4.03
2023-04-27T11:10:20.497Z,3.70
2023-04-27T11:12:48.417Z,3.70
2023-04-27T11:15:16.363Z,4.40
2023-04-27T11:17:44.462Z,4.30
2023-04-27T11:20:12.392Z,3.90
2023-04-27T11:22:45.994Z,3.57
2023-04-27T11:25:13.966Z,3.60
2023-04-27T11:27:43.297Z,4.10
2023-04-27T11:30:22.096Z,4.10
2023-04-27T11:32:50.711Z,4.23
2023-04-27T11:35:19.298Z,3.80
2023-04-27T11:37:58.133Z,3.97
2023-04-27T11:40:27.218Z,4.00
2023-04-27T11:43:00.149Z,3.97
2023-04-27T11:45:28.905Z,4.00
2023-04-27T11:47:59.643Z,4.10
2023-04-27T11:50:28.740Z,3.63
2023-04-27T11:53:01.557Z,4.03
2023-04-27T11:55:29.495Z,4.17
2023-04-27T11:57:59.933Z,3.70
2023-04-27T12:00:27.941Z,3.60
2023-04-27T12:02:56.021Z,4.37
2023-04-27T12:05:24.372Z,3.77
2023-04-27T12:07:53.348Z,3.47
2023-04-27T12:10:21.319Z,4.10
2023-04-27T12:12:49.290Z,4.40
2023-04-27T12:15:18.552Z,3.77
2023-04-27T12:17:46.717Z,4.17
2023-04-27T12:20:15.326Z,3.70
2023-04-27T12:22:43.243Z,3.83
2023-04-27T12:25:11.179Z,5.40
2023-04-27T12:27:39.074Z,4.00
2023-04-27T12:30:08.199Z,2.93
2023-04-27T12:32:37.511Z,4.20
2023-04-27T12:35:06.507Z,3.70
2023-04-27T12:37:34.884Z,3.83
2023-04-27T12:40:05.921Z,3.93
2023-04-27T12:42:34.353Z,3.67
2023-04-27T12:45:04.543Z,3.90
2023-04-27T12:47:53.958Z,3.83
2023-04-27T12:50:24.036Z,4.33
2023-04-27T12:52:52.155Z,3.90
2023-04-27T12:55:32.030Z,4.00
2023-04-27T12:58:00.806Z,3.50
2023-04-27T13:00:29.385Z,3.60
2023-04-27T13:02:58.550Z,4.10
2023-04-27T13:05:30.444Z,4.17
2023-04-27T13:07:59.800Z,4.17
2023-04-27T13:10:28.841Z,3.87
2023-04-27T13:12:56.846Z,3.70
2023-04-27T13:15:24.773Z,4.10
2023-04-27T13:17:54.063Z,3.33
2023-04-27T13:20:22.104Z,4.10
2023-04-27T13:22:51.440Z,3.67
2023-04-27T13:25:20.047Z,3.80
2023-04-27T13:27:47.992Z,4.10
2023-04-27T13:30:16.027Z,4.00
2023-04-27T13:32:43.927Z,3.80
2023-04-27T13:35:11.969Z,4.63
2023-04-27T13:37:42.140Z,3.60
2023-04-27T13:40:12.636Z,3.97
2023-04-27T13:42:41.024Z,3.80
2023-04-27T13:45:10.248Z,4.00
2023-04-27T13:47:38.341Z,4.60
2023-04-27T13:50:08.763Z,3.77
2023-04-27T13:52:37.717Z,4.57
2023-04-27T13:55:06.794Z,3.90
2023-04-27T13:57:36.233Z,3.83
2023-04-27T14:00:07.903Z,4.00
2023-04-27T14:02:36.304Z,4.20
2023-04-27T14:05:05.184Z,3.50
2023-04-27T14:07:35.440Z,3.90
2023-04-27T14:10:03.755Z,3.83
2023-04-27T14:12:32.219Z,3.80
2023-04-27T14:15:01.592Z,3.50
2023-04-27T14:17:29.672Z,3.53
2023-04-27T14:19:57.592Z,3.60
2023-04-27T14:22:25.576Z,3.97
2023-04-27T14:24:53.508Z,3.90
2023-04-27T14:27:21.434Z,4.17
2023-04-27T14:29:49.872Z,3.50
2023-04-27T14:32:19.274Z,3.60
2023-04-27T14:34:47.350Z,4.60
2023-04-27T14:37:15.246Z,4.33
2023-04-27T14:39:45.279Z,4.07
2023-04-27T14:42:13.399Z,4.00
2023-04-27T14:44:41.312Z,4.20
2023-04-27T14:47:09.295Z,4.20
2023-04-27T14:49:38.909Z,8.30
2023-04-27T14:52:06.959Z,6.70
2023-04-27T14:54:35.562Z,4.80
2023-04-27T14:57:03.720Z,4.63
2023-04-27T14:59:31.624Z,4.13
2023-04-27T15:01:59.670Z,4.60
2023-04-27T15:04:27.729Z,4.63
2023-04-27T15:06:57.327Z,4.67
2023-04-27T15:09:25.190Z,4.47
2023-04-27T15:11:53.280Z,4.60
2023-04-27T15:14:21.112Z,4.87
2023-04-27T15:16:49.015Z,4.43
2023-04-27T15:19:17.015Z,4.73
2023-04-27T15:21:44.951Z,4.57
2023-04-27T15:24:14.113Z,4.23
2023-04-27T15:26:41.986Z,5.67
2023-04-27T15:29:09.875Z,4.57
2023-04-27T15:31:37.846Z,4.30
2023-04-27T15:34:05.869Z,4.20
2023-04-27T15:36:34.433Z,4.70
2023-04-27T15:39:02.408Z,4.03
2023-04-27T15:41:32.163Z,3.93
2023-04-27T15:44:00.149Z,4.57
2023-04-27T15:46:28.631Z,4.30
2023-04-27T15:48:56.831Z,5.00
2023-04-27T15:51:24.892Z,4.10
2023-04-27T15:53:52.799Z,4.60
2023-04-27T15:56:21.236Z,4.60
2023-04-27T15:58:51.131Z,4.07
2023-04-27T16:01:19.430Z,4.90
2023-04-27T16:03:47.530Z,4.00
2023-04-27T16:06:16.001Z,4.10
2023-04-27T16:08:43.916Z,3.87
2023-04-27T16:11:13.069Z,4.70
2023-04-27T16:13:41.158Z,3.97
2023-04-27T16:16:10.405Z,7.93
2023-04-27T16:18:38.843Z,3.80
2023-04-27T16:21:07.301Z,4.50
2023-04-27T16:23:35.331Z,3.70
2023-04-27T16:26:03.311Z,3.80
2023-04-27T16:28:32.759Z,4.50
2023-04-27T16:31:00.917Z,4.73
2023-04-27T16:33:30.364Z,4.60
2023-04-27T16:35:58.330Z,4.20
2023-04-27T16:38:26.775Z,4.63
2023-04-27T16:40:56.078Z,4.40
2023-04-27T16:43:24.423Z,5.13
2023-04-27T16:45:52.456Z,4.73
2023-04-27T16:48:20.329Z,4.30
2023-04-27T16:50:49.611Z,5.07
2023-04-27T16:53:21.038Z,4.70
2023-04-27T16:55:49.091Z,4.80
2023-04-27T16:58:17.323Z,4.80
2023-04-27T17:00:45.271Z,4.77
2023-04-27T17:03:13.286Z,4.33
2023-04-27T17:05:41.263Z,8.30
2023-04-27T17:08:11.468Z,6.30
2023-04-27T17:10:39.451Z,5.70
2023-04-27T17:13:07.865Z,5.07
2023-04-27T17:15:35.870Z,5.40
2023-04-27T17:18:05.652Z,4.80
2023-04-27T17:20:33.822Z,5.57
2023-04-27T17:23:01.704Z,4.90
2023-04-27T17:25:31.660Z,5.03
2023-04-27T17:28:01.293Z,5.03
2023-04-27T17:30:32.678Z,5.20
2023-04-27T17:33:00.775Z,5.40
2023-04-27T17:35:28.722Z,4.83
2023-04-27T17:37:56.843Z,5.20
2023-04-27T17:40:27.469Z,5.17
2023-04-27T17:42:57.894Z,5.20
2023-04-27T17:45:28.716Z,5.50
2023-04-27T17:47:56.654Z,5.50
2023-04-27T17:50:26.083Z,5.23
2023-04-27T17:52:54.455Z,5.50
2023-04-27T17:55:22.498Z,5.70
2023-04-27T17:57:50.574Z,5.20
2023-04-27T18:00:21.603Z,5.40
2023-04-27T18:02:49.864Z,5.93
2023-04-27T18:05:18.274Z,5.37
2023-04-27T18:07:47.202Z,5.23
2023-04-27T18:10:15.287Z,6.17
2023-04-27T18:12:43.383Z,5.70
2023-04-27T18:15:11.832Z,5.23
2023-04-27T18:17:41.173Z,6.27
2023-04-27T18:20:10.710Z,6.03
2023-04-27T18:22:40.098Z,6.07
2023-04-27T18:25:09.573Z,5.93
2023-04-27T18:27:38.333Z,6.50
2023-04-27T18:30:08.362Z,6.60
2023-04-27T18:32:36.725Z,6.53
2023-04-27T18:35:06.785Z,7.37
2023-04-27T18:37:34.781Z,7.20
2023-04-27T18:40:02.799Z,8.20
2023-04-27T18:42:30.874Z,7.40
2023-04-27T18:45:00.796Z,8.40
2023-04-27T18:47:29.117Z,8.03
2023-04-27T18:49:57.178Z,8.17
2023-04-27T18:52:26.709Z,7.90
2023-04-27T18:54:54.711Z,8.30
2023-04-27T18:57:22.854Z,7.57
2023-04-27T18:59:50.822Z,9.00
2023-04-27T19:02:18.788Z,7.87
2023-04-27T19:04:57.101Z,8.53
2023-04-27T19:07:36.191Z,7.70
2023-04-27T19:10:04.325Z,7.30
2023-04-27T19:12:32.208Z,7.90
2023-04-27T19:15:00.082Z,7.60
2023-04-27T19:17:28.132Z,11.53
2023-04-27T19:19:56.227Z,11.20
2023-04-27T19:22:24.217Z,8.93
2023-04-27T19:24:53.513Z,7.47
2023-04-27T19:27:21.935Z,8.30
2023-04-27T19:29:52.130Z,7.90
2023-04-27T19:32:20.604Z,7.93
2023-04-27T19:34:48.802Z,7.97
2023-04-27T19:37:16.933Z,8.70
2023-04-27T19:39:45.041Z,8.23
2023-04-27T19:42:15.291Z,9.00
2023-04-27T19:44:43.593Z,9.23
2023-04-27T19:47:11.821Z,8.87
2023-04-27T19:49:40.155Z,8.43
2023-04-27T19:52:08.258Z,7.57
2023-04-27T19:54:38.233Z,7.53
2023-04-27T19:57:06.672Z,8.90
2023-04-27T19:59:36.108Z,7.83
2023-04-27T20:02:04.292Z,9.00
2023-04-27T20:04:33.063Z,9.00
2023-04-27T20:07:01.608Z,9.90
2023-04-27T20:09:30.416Z,10.00
2023-04-27T20:11:58.551Z,9.57
2023-04-27T20:14:28.979Z,10.50
2023-04-27T20:16:58.327Z,10.87
2023-04-27T20:19:26.573Z,9.73
2023-04-27T20:21:54.471Z,10.90
2023-04-27T20:24:22.798Z,12.30
2023-04-27T20:26:50.952Z,12.97
2023-04-27T20:29:18.834Z,12.67
2023-04-27T20:31:48.534Z,12.47
2023-04-27T20:34:17.970Z,11.57
2023-04-27T20:36:46.860Z,12.03
2023-04-27T20:39:15.234Z,11.60
2023-04-27T20:41:44.218Z,12.07
2023-04-27T20:44:13.063Z,11.67
2023-04-27T20:46:41.493Z,10.20
2023-04-27T20:49:09.407Z,11.27
2023-04-27T20:51:38.741Z,11.43
2023-04-27T20:54:07.062Z,11.67
2023-04-27T20:56:34.964Z,10.50
2023-04-27T20:59:02.939Z,11.63
2023-04-27T21:01:30.824Z,11.30
2023-04-27T21:03:58.848Z,10.83
2023-04-27T21:06:26.860Z,11.10
2023-04-27T21:08:57.487Z,12.03
2023-04-27T21:11:25.398Z,11.40
2023-04-27T21:13:53.472Z,11.93
2023-04-27T21:16:21.603Z,10.97
2023-04-27T21:18:49.491Z,10.57
2023-04-27T21:21:17.306Z,11.33
2023-04-27T21:23:45.627Z,12.13
2023-04-27T21:26:15.992Z,12.47
2023-04-27T21:28:44.314Z,13.17
2023-04-27T21:31:12.268Z,12.70
2023-04-27T21:33:40.199Z,12.47
2023-04-27T21:36:08.365Z,11.63
2023-04-27T21:38:36.323Z,13.93
2023-04-27T21:41:04.348Z,12.77
2023-04-27T21:43:33.677Z,13.40
2023-04-27T21:46:01.666Z,13.70
2023-04-27T21:48:29.638Z,11.50
2023-04-27T21:50:57.541Z,12.17
2023-04-27T21:53:25.564Z,10.67
2023-04-27T21:55:53.526Z,10.47
2023-04-27T21:58:21.553Z,10.33
2023-04-27T22:00:50.962Z,10.07
2023-04-27T22:03:19.148Z,9.67
2023-04-27T22:05:49.053Z,11.23
2023-04-27T22:08:18.263Z,12.53
2023-04-27T22:10:46.558Z,12.53
2023-04-27T22:15:45.899Z,12.77
2023-04-27T22:18:15.683Z,12.00
2023-04-27T22:20:44.126Z,11.73
2023-04-27T22:23:12.167Z,12.80
2023-04-27T22:25:42.676Z,12.43
2023-04-27T22:28:10.983Z,11.50
2023-04-27T22:30:39.060Z,12.73
2023-04-27T22:33:07.262Z,12.20
2023-04-27T22:35:37.849Z,13.33
2023-04-27T22:38:06.108Z,11.50
2023-04-27T22:40:34.300Z,12.60
2023-04-27T22:43:02.255Z,12.93
2023-04-27T22:45:30.542Z,12.87
2023-04-27T22:47:58.668Z,11.30
2023-04-27T22:50:26.761Z,13.87
2023-04-27T22:52:56.103Z,13.63
2023-04-27T22:55:24.097Z,13.10
2023-04-27T22:57:53.711Z,13.43
2023-04-27T23:00:21.980Z,13.07
2023-04-27T23:02:50.062Z,13.07
2023-04-27T23:05:18.249Z,14.03
2023-04-27T23:07:46.450Z,13.00
2023-04-27T23:10:15.876Z,13.63
2023-04-27T23:12:43.818Z,12.80
2023-04-27T23:15:12.836Z,12.60
2023-04-27T23:17:41.238Z,13.20
2023-04-27T23:20:20.377Z,12.60
2023-04-27T23:22:52.473Z,12.47
2023-04-27T23:25:22.235Z,12.37
2023-04-27T23:27:52.108Z,12.00
2023-04-27T23:30:21.479Z,12.40
2023-04-27T23:32:49.577Z,11.60
2023-04-27T23:35:17.598Z,12.13
2023-04-27T23:37:45.505Z,11.80
2023-04-27T23:40:14.070Z,11.50
2023-04-27T23:42:43.313Z,12.17
2023-04-27T23:45:12.133Z,13.07
2023-04-27T23:47:40.173Z,10.93
2023-04-27T23:50:09.119Z,12.13
2023-04-27T23:52:37.186Z,12.03
2023-04-27T23:55:05.863Z,10.63
2023-04-27T23:57:33.911Z,10.53
